createdAt,value
2023-05-23T00:00:23.584Z,11.51
2023-05-23T00:01:23.453Z,11.56
2023-05-23T00:02:23.528Z,11.57
2023-05-23T00:03:23.444Z,11.51
2023-05-23T00:04:23.473Z,11.56
2023-05-23T00:05:23.392Z,11.46
2023-05-23T00:06:23.405Z,11.63
2023-05-23T00:07:23.378Z,11.60
2023-05-23T00:08:23.373Z,11.45
2023-05-23T00:09:23.347Z,11.57
2023-05-23T00:10:23.336Z,11.44
2023-05-23T00:11:23.317Z,11.45
2023-05-23T00:12:23.316Z,11.46
2023-05-23T00:13:23.318Z,11.56
2023-05-23T00:14:23.283Z,11.62
2023-05-23T00:15:23.283Z,11.48
2023-05-23T00:16:23.443Z,11.49
2023-05-23T00:17:23.313Z,11.63
2023-05-23T00:18:23.240Z,11.64
2023-05-23T00:19:23.306Z,11.74
2023-05-23T00:20:23.226Z,11.64
2023-05-23T00:21:23.212Z,11.66
2023-05-23T00:22:23.232Z,11.72
2023-05-23T00:23:23.189Z,11.79
2023-05-23T00:24:23.189Z,11.81
2023-05-23T00:25:23.184Z,11.85
2023-05-23T00:26:23.154Z,11.77
2023-05-23T00:27:23.147Z,11.82
2023-05-23T00:28:23.133Z,11.85
2023-05-23T00:29:23.135Z,11.78
2023-05-23T00:30:23.111Z,11.78
2023-05-23T00:31:23.167Z,11.67
2023-05-23T00:32:23.261Z,11.66
2023-05-23T00:33:23.097Z,11.42
2023-05-23T00:34:23.070Z,11.41
2023-05-23T00:35:23.073Z,11.44
2023-05-23T00:36:23.044Z,11.49
2023-05-23T00:37:23.069Z,11.54
2023-05-23T00:38:23.025Z,11.51
2023-05-23T00:39:23.019Z,11.63
2023-05-23T00:40:23.001Z,11.79
2023-05-23T00:41:23.013Z,11.77
2023-05-23T00:42:23.001Z,11.77
2023-05-23T00:43:22.984Z,11.90
2023-05-23T00:44:23.059Z,11.94
2023-05-23T00:45:22.956Z,11.94
2023-05-23T00:46:22.984Z,12.00
2023-05-23T00:47:22.969Z,12.01
2023-05-23T00:48:23.032Z,11.97
2023-05-23T00:49:22.939Z,11.93
2023-05-23T00:50:22.908Z,11.96
2023-05-23T00:51:22.895Z,11.94
2023-05-23T00:52:22.888Z,11.90
2023-05-23T00:53:22.868Z,11.82
2023-05-23T00:54:22.851Z,12.01
2023-05-23T00:55:22.863Z,11.93
2023-05-23T00:56:22.830Z,11.78
2023-05-23T00:57:22.859Z,11.82
2023-05-23T00:58:22.812Z,11.82
2023-05-23T00:59:22.846Z,11.82
2023-05-23T01:00:22.787Z,11.79
2023-05-23T01:01:22.829Z,11.70
2023-05-23T01:02:22.816Z,11.67
2023-05-23T01:03:22.843Z,11.70
2023-05-23T01:04:22.858Z,11.66
2023-05-23T01:05:23.053Z,11.64
2023-05-23T01:06:22.718Z,11.57
2023-05-23T01:07:22.726Z,11.64
2023-05-23T01:08:22.693Z,11.64
2023-05-23T01:09:22.703Z,11.67
2023-05-23T01:10:22.681Z,11.49
2023-05-23T01:11:22.663Z,11.66
2023-05-23T01:12:22.654Z,11.57
2023-05-23T01:13:22.665Z,11.60
2023-05-23T01:14:22.630Z,11.70
2023-05-23T01:15:22.648Z,11.53
2023-05-23T01:16:22.656Z,11.56
2023-05-23T01:17:22.648Z,11.66
2023-05-23T01:18:22.583Z,11.67
2023-05-23T01:19:22.685Z,11.59
2023-05-23T01:20:22.710Z,11.62
2023-05-23T01:21:22.558Z,11.72
2023-05-23T01:22:22.536Z,11.66
2023-05-23T01:23:22.530Z,11.66
2023-05-23T01:24:22.516Z,11.51
2023-05-23T01:25:22.532Z,11.56
2023-05-23T01:26:22.500Z,11.51
2023-05-23T01:27:22.485Z,11.57
2023-05-23T01:28:22.479Z,11.54
2023-05-23T01:29:22.461Z,11.63
2023-05-23T01:30:22.460Z,11.74
2023-05-23T01:31:22.496Z,11.70
2023-05-23T01:32:22.480Z,11.79
2023-05-23T01:33:22.429Z,11.75
2023-05-23T01:34:22.402Z,11.72
2023-05-23T01:35:22.409Z,11.81
2023-05-23T01:36:22.501Z,11.78
2023-05-23T01:37:22.396Z,11.70
2023-05-23T01:38:22.400Z,11.64
2023-05-23T01:39:22.357Z,11.75
2023-05-23T01:40:22.341Z,11.63
2023-05-23T01:41:22.343Z,11.81
2023-05-23T01:42:22.331Z,11.64
2023-05-23T01:43:22.311Z,11.70
2023-05-23T01:44:22.305Z,11.69
2023-05-23T01:45:22.291Z,11.67
2023-05-23T01:46:22.427Z,11.60
2023-05-23T01:47:22.271Z,11.78
2023-05-23T01:48:22.274Z,11.64
2023-05-23T01:49:22.241Z,11.67
2023-05-23T01:50:22.256Z,11.77
2023-05-23T01:51:22.221Z,11.63
2023-05-23T01:52:22.643Z,11.49
2023-05-23T01:53:22.200Z,11.44
2023-05-23T01:54:22.203Z,11.35
2023-05-23T01:55:22.178Z,11.38
2023-05-23T01:56:22.177Z,11.31
2023-05-23T01:57:22.160Z,11.35
2023-05-23T01:58:22.147Z,11.26
2023-05-23T01:59:22.143Z,11.16
2023-05-23T02:00:22.144Z,11.13
2023-05-23T02:01:22.293Z,11.09
2023-05-23T02:02:22.201Z,11.01
2023-05-23T02:03:22.230Z,10.88
2023-05-23T02:04:22.082Z,10.76
2023-05-23T02:05:22.071Z,10.81
2023-05-23T02:06:22.072Z,10.75
2023-05-23T02:07:22.079Z,10.72
2023-05-23T02:08:22.153Z,10.75
2023-05-23T02:09:22.037Z,10.81
2023-05-23T02:10:22.041Z,10.83
2023-05-23T02:11:22.000Z,10.80
2023-05-23T02:12:22.024Z,11.01
2023-05-23T02:13:22.009Z,10.95
2023-05-23T02:14:21.983Z,10.94
2023-05-23T02:15:21.957Z,10.93
2023-05-23T02:16:22.045Z,11.03
2023-05-23T02:17:22.005Z,10.98
2023-05-23T02:18:21.973Z,10.94
2023-05-23T02:19:21.978Z,10.88
2023-05-23T02:20:21.914Z,10.94
2023-05-23T02:21:21.929Z,10.95
2023-05-23T02:22:21.895Z,10.91
2023-05-23T02:23:21.886Z,11.03
2023-05-23T02:24:21.981Z,10.95
2023-05-23T02:25:21.845Z,10.98
2023-05-23T02:26:21.837Z,11.02
2023-05-23T02:27:21.849Z,11.11
2023-05-23T02:28:21.817Z,11.03
2023-05-23T02:29:21.817Z,11.23
2023-05-23T02:30:21.825Z,11.16
2023-05-23T02:31:21.823Z,11.03
2023-05-23T02:32:21.769Z,11.06
2023-05-23T02:33:21.757Z,11.19
2023-05-23T02:34:21.758Z,11.16
2023-05-23T02:35:21.741Z,11.05
2023-05-23T02:36:21.742Z,11.11
2023-05-23T02:37:21.707Z,11.11
2023-05-23T02:38:21.703Z,11.12
2023-05-23T02:39:21.702Z,11.20
2023-05-23T02:40:21.809Z,11.26
2023-05-23T02:41:21.669Z,11.30
2023-05-23T02:42:21.686Z,11.13
2023-05-23T02:43:21.643Z,11.16
2023-05-23T02:44:21.638Z,11.21
2023-05-23T02:45:21.639Z,11.20
2023-05-23T02:46:21.629Z,11.23
2023-05-23T02:47:21.663Z,11.28
2023-05-23T02:48:21.610Z,11.39
2023-05-23T02:49:21.576Z,11.30
2023-05-23T02:50:21.569Z,11.38
2023-05-23T02:51:21.568Z,11.39
2023-05-23T02:52:21.546Z,11.33
2023-05-23T02:53:21.532Z,11.38
2023-05-23T02:54:21.536Z,11.39
2023-05-23T02:55:21.511Z,11.31
2023-05-23T02:56:21.649Z,11.41
2023-05-23T02:57:21.495Z,11.38
2023-05-23T02:58:21.477Z,11.51
2023-05-23T02:59:21.472Z,11.45
2023-05-23T03:00:21.471Z,11.41
2023-05-23T03:01:21.474Z,11.54
2023-05-23T03:02:21.444Z,11.38
2023-05-23T03:03:21.546Z,11.45
2023-05-23T03:04:21.427Z,11.41
2023-05-23T03:05:21.402Z,11.51
2023-05-23T03:06:21.418Z,11.49
2023-05-23T03:07:28.196Z,11.53
2023-05-23T03:08:22.375Z,11.38
2023-05-23T03:09:21.351Z,11.54
2023-05-23T03:10:21.354Z,11.45
2023-05-23T03:11:21.340Z,11.48
2023-05-23T03:12:21.474Z,11.51
2023-05-23T03:13:21.322Z,11.44
2023-05-23T03:14:21.298Z,11.63
2023-05-23T03:15:21.285Z,11.56
2023-05-23T03:16:21.315Z,11.53
2023-05-23T03:17:21.329Z,11.57
2023-05-23T03:18:21.305Z,11.53
2023-05-23T03:19:21.281Z,11.59
2023-05-23T03:20:21.260Z,11.63
2023-05-23T03:21:21.223Z,11.45
2023-05-23T03:22:21.204Z,11.57
2023-05-23T03:23:21.194Z,11.48
2023-05-23T03:24:21.205Z,11.45
2023-05-23T03:25:21.172Z,11.54
2023-05-23T03:26:21.159Z,11.44
2023-05-23T03:27:21.148Z,11.51
2023-05-23T03:28:21.277Z,11.45
2023-05-23T03:29:21.125Z,11.36
2023-05-23T03:30:21.132Z,11.19
2023-05-23T03:31:21.162Z,11.31
2023-05-23T03:32:21.127Z,11.31
2023-05-23T03:33:21.108Z,11.30
2023-05-23T03:34:21.068Z,11.30
2023-05-23T03:35:21.071Z,11.24
2023-05-23T03:36:21.058Z,11.19
2023-05-23T03:37:21.036Z,11.33
2023-05-23T03:38:21.027Z,11.12
2023-05-23T03:39:21.017Z,11.19
2023-05-23T03:40:21.010Z,11.13
2023-05-23T03:41:21.003Z,11.06
2023-05-23T03:42:21.027Z,11.03
2023-05-23T03:43:20.989Z,11.06
2023-05-23T03:44:21.091Z,10.88
2023-05-23T03:45:20.961Z,11.01
2023-05-23T03:46:21.028Z,11.03
2023-05-23T03:47:20.936Z,10.91
2023-05-23T03:48:20.957Z,10.94
2023-05-23T03:49:20.908Z,10.86
2023-05-23T03:50:20.896Z,10.84
2023-05-23T03:51:20.885Z,10.93
2023-05-23T03:52:20.888Z,10.73
2023-05-23T03:53:20.865Z,10.68
2023-05-23T03:54:20.869Z,10.75
2023-05-23T03:55:20.845Z,10.76
2023-05-23T03:56:20.828Z,10.70
2023-05-23T03:57:20.825Z,10.78
2023-05-23T03:58:20.819Z,10.88
2023-05-23T03:59:20.795Z,10.90
2023-05-23T04:00:20.913Z,10.83
2023-05-23T04:01:20.774Z,10.99
2023-05-23T04:02:20.816Z,11.05
2023-05-23T04:03:20.933Z,11.01
2023-05-23T04:04:20.799Z,10.88
2023-05-23T04:05:20.731Z,10.86
2023-05-23T04:06:20.729Z,10.93
2023-05-23T04:07:20.707Z,10.88
2023-05-23T04:08:20.696Z,10.81
2023-05-23T04:09:20.711Z,10.80
2023-05-23T04:10:20.679Z,10.76
2023-05-23T04:11:20.666Z,10.73
2023-05-23T04:12:20.667Z,10.63
2023-05-23T04:13:20.637Z,10.54
2023-05-23T04:14:20.629Z,10.55
2023-05-23T04:15:20.628Z,10.42
2023-05-23T04:16:20.752Z,10.39
2023-05-23T04:17:20.597Z,10.54
2023-05-23T04:18:20.597Z,10.68
2023-05-23T04:19:20.632Z,10.81
2023-05-23T04:20:20.561Z,10.76
2023-05-23T04:21:20.566Z,10.90
2023-05-23T04:22:20.583Z,10.91
2023-05-23T04:23:20.532Z,10.94
2023-05-23T04:24:20.546Z,10.99
2023-05-23T04:25:20.509Z,11.06
2023-05-23T04:26:20.497Z,11.08
2023-05-23T04:27:20.496Z,11.02
2023-05-23T04:28:20.483Z,11.12
2023-05-23T04:29:20.462Z,11.20
2023-05-23T04:30:20.481Z,11.19
2023-05-23T04:31:20.474Z,11.21
2023-05-23T04:32:20.563Z,11.13
2023-05-23T04:33:20.424Z,11.36
2023-05-23T04:34:20.426Z,11.30
2023-05-23T04:35:20.398Z,11.35
2023-05-23T04:36:20.437Z,11.24
2023-05-23T04:37:20.377Z,11.33
2023-05-23T04:38:20.368Z,11.31
2023-05-23T04:39:20.353Z,11.28
2023-05-23T04:40:20.366Z,11.39
2023-05-23T04:41:20.382Z,11.46
2023-05-23T04:42:20.339Z,11.53
2023-05-23T04:43:20.332Z,11.66
2023-05-23T04:44:20.315Z,11.79
2023-05-23T04:45:20.288Z,11.82
2023-05-23T04:46:20.310Z,11.78
2023-05-23T04:47:20.279Z,11.93
2023-05-23T04:48:20.399Z,11.96
2023-05-23T04:49:20.244Z,11.98
2023-05-23T04:50:20.240Z,12.05
2023-05-23T04:51:20.225Z,12.11
2023-05-23T04:52:20.225Z,12.12
2023-05-23T04:53:20.203Z,12.15
2023-05-23T04:54:20.208Z,12.13
2023-05-23T04:55:20.196Z,12.19
2023-05-23T04:56:21.672Z,12.23
2023-05-23T04:57:20.160Z,12.23
2023-05-23T04:58:20.167Z,12.11
2023-05-23T04:59:20.137Z,12.07
2023-05-23T05:00:20.147Z,12.03
2023-05-23T05:01:22.177Z,12.07
2023-05-23T05:02:20.138Z,12.12
2023-05-23T05:03:20.092Z,12.40
2023-05-23T05:04:20.263Z,12.69
2023-05-23T05:05:20.072Z,12.91
2023-05-23T05:06:20.077Z,12.91
2023-05-23T05:07:20.065Z,13.09
2023-05-23T05:08:20.089Z,13.13
2023-05-23T05:09:20.033Z,13.17
2023-05-23T05:10:20.019Z,13.17
2023-05-23T05:11:20.017Z,12.95
2023-05-23T05:12:20.028Z,12.95
2023-05-23T05:13:19.998Z,12.84
2023-05-23T05:14:19.993Z,13.09
2023-05-23T05:15:19.961Z,13.31
2023-05-23T05:16:19.967Z,13.36
2023-05-23T05:17:19.959Z,13.35
2023-05-23T05:18:19.945Z,13.41
2023-05-23T05:19:20.008Z,13.66
2023-05-23T05:20:20.048Z,13.72
2023-05-23T05:21:19.898Z,13.68
2023-05-23T05:22:19.892Z,13.61
2023-05-23T05:23:19.888Z,13.87
2023-05-23T05:24:19.880Z,13.72
2023-05-23T05:25:19.852Z,13.75
2023-05-23T05:26:19.856Z,13.68
2023-05-23T05:27:19.864Z,13.91
2023-05-23T05:28:19.822Z,13.84
2023-05-23T05:29:19.806Z,13.94
2023-05-23T05:30:19.833Z,14.13
2023-05-23T05:31:19.864Z,14.30
2023-05-23T05:32:19.837Z,14.48
2023-05-23T05:33:19.766Z,14.45
2023-05-23T05:34:19.758Z,14.56
2023-05-23T05:35:19.753Z,14.39
2023-05-23T05:36:19.854Z,14.35
2023-05-23T05:37:19.730Z,14.44
2023-05-23T05:38:19.732Z,14.46
2023-05-23T05:39:19.702Z,14.45
2023-05-23T05:40:19.696Z,14.41
2023-05-23T05:41:19.698Z,14.52
2023-05-23T05:42:19.693Z,14.72
2023-05-23T05:43:19.657Z,14.97
2023-05-23T05:44:19.656Z,15.15
2023-05-23T05:45:19.631Z,15.22
2023-05-23T05:46:19.678Z,15.25
2023-05-23T05:47:19.610Z,15.30
2023-05-23T05:48:19.616Z,15.28
2023-05-23T05:49:19.589Z,15.15
2023-05-23T05:50:19.593Z,15.15
2023-05-23T05:51:19.574Z,15.22
2023-05-23T05:52:19.702Z,15.25
2023-05-23T05:53:19.580Z,15.05
2023-05-23T05:54:19.554Z,15.18
2023-05-23T05:55:19.527Z,15.07
2023-05-23T05:56:19.530Z,14.97
2023-05-23T05:57:19.517Z,14.80
2023-05-23T05:58:19.500Z,14.75
2023-05-23T05:59:19.494Z,14.95
2023-05-23T06:00:19.485Z,14.72
2023-05-23T06:01:19.462Z,14.54
2023-05-23T06:02:19.559Z,14.80
2023-05-23T06:03:19.525Z,14.97
2023-05-23T06:04:19.473Z,14.83
2023-05-23T06:05:19.436Z,14.74
2023-05-23T06:06:19.436Z,14.69
2023-05-23T06:07:19.409Z,14.52
2023-05-23T06:08:19.501Z,14.53
2023-05-23T06:09:19.388Z,14.80
2023-05-23T06:10:19.372Z,15.03
2023-05-23T06:11:19.394Z,15.18
2023-05-23T06:12:19.379Z,15.22
2023-05-23T06:13:19.337Z,15.22
2023-05-23T06:14:19.322Z,15.19
2023-05-23T06:15:19.318Z,15.34
2023-05-23T06:16:19.357Z,15.05
2023-05-23T06:17:19.369Z,15.19
2023-05-23T06:18:19.309Z,15.33
2023-05-23T06:19:19.293Z,15.64
2023-05-23T06:20:19.259Z,15.53
2023-05-23T06:21:19.254Z,15.43
2023-05-23T06:22:19.260Z,15.70
2023-05-23T06:23:19.249Z,15.85
2023-05-23T06:24:19.335Z,16.16
2023-05-23T06:25:19.209Z,16.18
2023-05-23T06:26:19.195Z,16.25
2023-05-23T06:27:19.192Z,15.95
2023-05-23T06:28:19.186Z,15.85
2023-05-23T06:29:19.167Z,15.80
2023-05-23T06:30:19.173Z,15.68
2023-05-23T06:31:19.182Z,15.77
2023-05-23T06:32:19.146Z,15.74
2023-05-23T06:33:19.122Z,15.96
2023-05-23T06:34:19.106Z,15.98
2023-05-23T06:35:19.098Z,15.98
2023-05-23T06:36:19.095Z,16.06
2023-05-23T06:37:19.081Z,15.96
2023-05-23T06:38:19.073Z,15.71
2023-05-23T06:39:19.052Z,15.62
2023-05-23T06:40:19.179Z,15.34
2023-05-23T06:41:19.031Z,15.27
2023-05-23T06:42:19.030Z,15.13
2023-05-23T06:43:19.011Z,15.31
2023-05-23T06:44:19.011Z,15.66
2023-05-23T06:45:18.993Z,15.93
2023-05-23T06:46:19.147Z,16.04
2023-05-23T06:47:18.983Z,16.08
2023-05-23T06:48:18.968Z,15.85
2023-05-23T06:49:18.956Z,15.95
2023-05-23T06:50:18.931Z,15.92
2023-05-23T06:51:18.958Z,15.91
2023-05-23T06:52:18.921Z,15.76
2023-05-23T06:53:19.390Z,15.76
2023-05-23T06:54:18.910Z,15.70
2023-05-23T06:55:18.876Z,15.85
2023-05-23T06:56:18.991Z,16.27
2023-05-23T06:57:18.862Z,16.40
2023-05-23T06:58:18.854Z,16.23
2023-05-23T06:59:18.837Z,16.04
2023-05-23T07:00:18.835Z,16.18
2023-05-23T07:01:18.904Z,16.32
2023-05-23T07:02:18.809Z,16.51
2023-05-23T07:03:18.792Z,16.55
2023-05-23T07:04:18.802Z,16.85
2023-05-23T07:05:18.819Z,16.98
2023-05-23T07:06:18.766Z,17.15
2023-05-23T07:07:18.794Z,17.14
2023-05-23T07:08:18.741Z,17.12
2023-05-23T07:09:18.741Z,17.27
2023-05-23T07:10:18.728Z,17.28
2023-05-23T07:11:18.705Z,17.51
2023-05-23T07:12:18.828Z,17.47
2023-05-23T07:13:18.680Z,17.76
2023-05-23T07:14:18.667Z,17.89
2023-05-23T07:15:18.675Z,17.95
2023-05-23T07:16:18.660Z,17.98
2023-05-23T07:17:18.706Z,17.86
2023-05-23T07:18:18.641Z,17.60
2023-05-23T07:19:18.658Z,17.54
2023-05-23T07:20:18.605Z,17.46
2023-05-23T07:21:18.613Z,16.87
2023-05-23T07:22:18.579Z,16.77
2023-05-23T07:23:18.576Z,17.03
2023-05-23T07:24:18.577Z,17.32
2023-05-23T07:25:18.554Z,17.54
2023-05-23T07:26:18.534Z,17.33
2023-05-23T07:27:18.540Z,17.53
2023-05-23T07:28:18.636Z,17.27
2023-05-23T07:29:18.506Z,17.46
2023-05-23T07:30:18.520Z,17.84
2023-05-23T07:31:18.532Z,17.94
2023-05-23T07:32:18.468Z,17.94
2023-05-23T07:33:18.461Z,18.34
2023-05-23T07:34:18.461Z,18.35
2023-05-23T07:35:18.440Z,18.14
2023-05-23T07:36:18.452Z,18.14
2023-05-23T07:37:18.428Z,18.10
2023-05-23T07:38:18.410Z,18.28
2023-05-23T07:39:18.398Z,17.71
2023-05-23T07:40:18.383Z,17.83
2023-05-23T07:41:18.376Z,18.16
2023-05-23T07:42:18.424Z,18.32
2023-05-23T07:43:18.358Z,18.39
2023-05-23T07:44:18.369Z,18.26
2023-05-23T07:45:18.336Z,18.11
2023-05-23T07:46:18.380Z,18.14
2023-05-23T07:47:18.318Z,18.17
2023-05-23T07:48:18.320Z,18.28
2023-05-23T07:49:18.292Z,18.17
2023-05-23T07:50:18.275Z,18.19
2023-05-23T07:51:18.269Z,18.49
2023-05-23T07:52:18.268Z,18.47
2023-05-23T07:53:18.252Z,18.54
2023-05-23T07:54:18.252Z,18.68
2023-05-23T07:55:18.230Z,18.41
2023-05-23T07:56:18.253Z,18.97
2023-05-23T07:57:18.211Z,18.83
2023-05-23T07:58:18.197Z,18.89
2023-05-23T07:59:18.193Z,19.20
2023-05-23T08:00:18.190Z,19.27
2023-05-23T08:01:18.180Z,19.62
2023-05-23T08:02:18.229Z,19.82
2023-05-23T08:03:18.174Z,19.61
2023-05-23T08:04:18.213Z,19.25
2023-05-23T08:05:18.122Z,19.39
2023-05-23T08:06:18.115Z,20.04
2023-05-23T08:07:19.601Z,19.90
2023-05-23T08:08:18.108Z,19.98
2023-05-23T08:09:18.073Z,19.71
2023-05-23T08:10:18.059Z,19.38
2023-05-23T08:11:18.051Z,18.74
2023-05-23T08:12:18.045Z,18.49
2023-05-23T08:13:18.031Z,18.11
2023-05-23T08:14:18.047Z,18.28
2023-05-23T08:15:18.025Z,18.07
2023-05-23T08:16:18.111Z,17.98
2023-05-23T08:17:17.996Z,18.01
2023-05-23T08:18:18.085Z,17.96
2023-05-23T08:19:18.043Z,17.81
2023-05-23T08:20:17.952Z,17.92
2023-05-23T08:21:17.955Z,17.83
2023-05-23T08:22:17.930Z,17.76
2023-05-23T08:23:17.954Z,17.79
2023-05-23T08:24:17.924Z,17.66
2023-05-23T08:25:17.915Z,17.47
2023-05-23T08:26:17.888Z,17.30
2023-05-23T08:27:17.891Z,17.06
2023-05-23T08:28:17.868Z,17.12
2023-05-23T08:29:17.878Z,17.24
2023-05-23T08:30:17.859Z,17.40
2023-05-23T08:31:17.839Z,17.21
2023-05-23T08:32:18.054Z,17.14
2023-05-23T08:33:17.818Z,17.21
2023-05-23T08:34:17.822Z,17.25
2023-05-23T08:35:17.812Z,17.25
2023-05-23T08:36:17.793Z,17.25
2023-05-23T08:37:17.774Z,17.25
2023-05-23T08:38:17.761Z,17.33
2023-05-23T08:39:17.764Z,17.28
2023-05-23T08:40:17.746Z,17.36
2023-05-23T08:41:17.747Z,17.24
2023-05-23T08:42:17.795Z,17.24
2023-05-23T08:43:17.713Z,17.35
2023-05-23T08:44:17.708Z,17.42
2023-05-23T08:45:17.713Z,17.35
2023-05-23T08:46:17.727Z,17.03
2023-05-23T08:47:17.679Z,16.96
2023-05-23T08:48:17.692Z,16.98
2023-05-23T08:49:17.677Z,16.66
2023-05-23T08:50:19.454Z,16.65
2023-05-23T08:51:17.632Z,16.67
2023-05-23T08:52:17.606Z,16.69
2023-05-23T08:53:17.603Z,16.98
2023-05-23T08:54:17.597Z,16.81
2023-05-23T08:55:17.584Z,16.72
2023-05-23T08:56:17.566Z,16.62
2023-05-23T08:57:17.582Z,16.62
2023-05-23T08:58:17.541Z,16.62
2023-05-23T08:59:17.530Z,16.65
2023-05-23T09:00:17.533Z,16.57
2023-05-23T09:01:17.561Z,16.41
2023-05-23T09:02:17.529Z,16.60
2023-05-23T09:03:17.495Z,16.84
2023-05-23T09:04:17.501Z,16.82
2023-05-23T09:05:17.518Z,16.73
2023-05-23T09:06:17.476Z,16.69
2023-05-23T09:07:17.444Z,16.66
2023-05-23T09:08:17.443Z,16.77
2023-05-23T09:09:17.428Z,16.77
2023-05-23T09:10:17.409Z,16.77
2023-05-23T09:11:17.404Z,16.78
2023-05-23T09:12:17.414Z,16.98
2023-05-23T09:13:17.379Z,16.91
2023-05-23T09:14:17.367Z,16.81
2023-05-23T09:15:17.617Z,16.88
2023-05-23T09:16:17.432Z,17.06
2023-05-23T09:17:17.346Z,16.85
2023-05-23T09:18:17.332Z,16.92
2023-05-23T09:19:17.386Z,16.77
2023-05-23T09:20:17.363Z,16.87
2023-05-23T09:21:17.299Z,16.82
2023-05-23T09:22:17.279Z,16.91
2023-05-23T09:23:17.285Z,16.92
2023-05-23T09:24:17.282Z,17.03
2023-05-23T09:25:17.245Z,17.15
2023-05-23T09:26:17.240Z,17.22
2023-05-23T09:27:17.228Z,17.24
2023-05-23T09:28:17.209Z,17.15
2023-05-23T09:29:17.219Z,17.30
2023-05-23T09:30:17.200Z,17.22
2023-05-23T09:31:17.190Z,17.22
2023-05-23T09:32:17.171Z,17.22
2023-05-23T09:33:17.226Z,17.25
2023-05-23T09:34:17.160Z,17.20
2023-05-23T09:35:17.165Z,17.24
2023-05-23T09:36:17.208Z,17.18
2023-05-23T09:37:17.116Z,17.17
2023-05-23T09:38:17.112Z,17.25
2023-05-23T09:39:17.096Z,17.24
2023-05-23T09:40:17.181Z,17.15
2023-05-23T09:41:17.080Z,17.07
2023-05-23T09:42:17.064Z,17.14
2023-05-23T09:43:17.053Z,17.12
2023-05-23T09:44:17.097Z,17.20
2023-05-23T09:45:17.240Z,17.06
2023-05-23T09:46:17.029Z,17.07
2023-05-23T09:47:17.162Z,17.02
2023-05-23T09:48:17.036Z,16.88
2023-05-23T09:49:17.033Z,16.99
2023-05-23T09:50:17.000Z,17.07
2023-05-23T09:51:16.976Z,17.07
2023-05-23T09:52:16.976Z,17.07
2023-05-23T09:53:16.960Z,17.05
2023-05-23T09:54:16.941Z,17.15
2023-05-23T09:55:16.929Z,17.09
2023-05-23T09:56:16.917Z,17.22
2023-05-23T09:57:16.912Z,17.05
2023-05-23T09:58:16.895Z,17.25
2023-05-23T09:59:16.894Z,17.36
2023-05-23T10:00:16.961Z,17.51
2023-05-23T10:01:16.907Z,17.38
2023-05-23T10:02:16.843Z,17.33
2023-05-23T10:03:16.888Z,17.25
2023-05-23T10:04:16.895Z,16.95
2023-05-23T10:05:16.820Z,16.87
2023-05-23T10:06:16.793Z,16.85
2023-05-23T10:07:16.800Z,16.88
2023-05-23T10:08:16.895Z,16.70
2023-05-23T10:09:16.767Z,16.60
2023-05-23T10:10:16.787Z,16.66
2023-05-23T10:11:16.824Z,16.77
2023-05-23T10:12:16.732Z,16.70
2023-05-23T10:13:16.724Z,16.84
2023-05-23T10:14:16.710Z,17.07
2023-05-23T10:15:16.718Z,17.21
2023-05-23T10:16:16.764Z,17.24
2023-05-23T10:17:16.793Z,17.24
2023-05-23T10:18:16.666Z,17.12
2023-05-23T10:19:16.751Z,17.27
2023-05-23T10:20:16.790Z,17.17
2023-05-23T10:21:16.637Z,17.20
2023-05-23T10:22:16.638Z,16.82
2023-05-23T10:23:16.641Z,16.98
2023-05-23T10:24:16.619Z,17.06
2023-05-23T10:25:16.615Z,17.28
2023-05-23T10:26:16.583Z,17.36
2023-05-23T10:27:16.568Z,17.43
2023-05-23T10:28:16.568Z,17.42
2023-05-23T10:29:16.580Z,17.33
2023-05-23T10:30:16.535Z,17.38
2023-05-23T10:31:16.526Z,17.39
2023-05-23T10:32:16.520Z,17.30
2023-05-23T10:33:16.496Z,17.36
2023-05-23T10:34:16.490Z,17.12
2023-05-23T10:35:16.511Z,17.20
2023-05-23T10:36:16.526Z,17.24
2023-05-23T10:37:16.451Z,17.18
2023-05-23T10:38:16.446Z,17.15
2023-05-23T10:39:16.437Z,17.21
2023-05-23T10:40:16.474Z,17.17
2023-05-23T10:41:16.433Z,17.09
2023-05-23T10:42:16.396Z,17.06
2023-05-23T10:43:16.384Z,17.17
2023-05-23T10:44:16.381Z,17.18
2023-05-23T10:45:16.397Z,17.02
2023-05-23T10:46:16.487Z,17.20
2023-05-23T10:47:16.462Z,17.18
2023-05-23T10:48:16.335Z,17.32
2023-05-23T10:49:16.320Z,17.49
2023-05-23T10:50:16.319Z,17.45
2023-05-23T10:51:16.313Z,17.51
2023-05-23T10:52:16.329Z,17.51
2023-05-23T10:53:16.289Z,17.45
2023-05-23T10:54:16.278Z,17.46
2023-05-23T10:55:16.253Z,17.66
2023-05-23T10:56:16.272Z,17.86
2023-05-23T10:57:16.243Z,18.13
2023-05-23T10:58:16.231Z,18.42
2023-05-23T10:59:16.255Z,18.78
2023-05-23T11:00:16.305Z,18.75
2023-05-23T11:01:16.204Z,18.75
2023-05-23T11:02:16.326Z,18.69
2023-05-23T11:03:16.297Z,18.96
2023-05-23T11:04:16.185Z,19.06
2023-05-23T11:05:16.169Z,19.06
2023-05-23T11:06:16.153Z,19.27
2023-05-23T11:07:16.129Z,19.35
2023-05-23T11:08:16.129Z,19.38
2023-05-23T11:09:16.104Z,19.45
2023-05-23T11:10:16.099Z,19.50
2023-05-23T11:11:16.140Z,19.34
2023-05-23T11:12:16.110Z,19.62
2023-05-23T11:13:16.062Z,19.49
2023-05-23T11:14:16.060Z,19.30
2023-05-23T11:15:16.043Z,19.40
2023-05-23T11:16:16.091Z,19.45
2023-05-23T11:17:16.044Z,19.47
2023-05-23T11:18:16.008Z,19.75
2023-05-23T11:19:16.026Z,19.58
2023-05-23T11:20:15.997Z,19.47
2023-05-23T11:21:15.977Z,19.43
2023-05-23T11:22:15.963Z,19.34
2023-05-23T11:23:15.968Z,19.40
2023-05-23T11:24:15.952Z,19.21
2023-05-23T11:25:15.936Z,19.20
2023-05-23T11:26:15.917Z,19.15
2023-05-23T11:27:15.932Z,18.82
2023-05-23T11:28:15.920Z,18.54
2023-05-23T11:29:15.900Z,18.25
2023-05-23T11:30:15.892Z,18.10
2023-05-23T11:31:15.887Z,18.11
2023-05-23T11:32:17.865Z,17.83
2023-05-23T11:33:15.884Z,17.76
2023-05-23T11:34:15.857Z,17.86
2023-05-23T11:35:15.853Z,18.01
2023-05-23T11:36:15.822Z,18.21
2023-05-23T11:37:15.809Z,18.46
2023-05-23T11:38:15.806Z,18.21
2023-05-23T11:39:15.784Z,18.13
2023-05-23T11:40:15.785Z,18.10
2023-05-23T11:41:15.776Z,18.20
2023-05-23T11:42:15.757Z,18.10
2023-05-23T11:43:15.745Z,18.20
2023-05-23T11:44:15.800Z,18.20
2023-05-23T11:45:15.735Z,18.17
2023-05-23T11:46:15.767Z,18.23
2023-05-23T11:47:15.719Z,18.14
2023-05-23T11:48:15.688Z,18.23
2023-05-23T11:49:15.688Z,18.47
2023-05-23T11:50:15.683Z,18.75
2023-05-23T11:51:15.676Z,19.21
2023-05-23T11:52:15.649Z,19.68
2023-05-23T11:53:15.661Z,19.67
2023-05-23T11:54:15.626Z,19.61
2023-05-23T11:55:15.633Z,19.49
2023-05-23T11:56:15.605Z,19.35
2023-05-23T11:57:15.595Z,19.21
2023-05-23T11:58:15.589Z,19.16
2023-05-23T11:59:15.581Z,18.99
2023-05-23T12:00:15.674Z,18.97
2023-05-23T12:01:15.548Z,18.97
2023-05-23T12:02:15.654Z,19.05
2023-05-23T12:03:15.658Z,19.34
2023-05-23T12:04:15.674Z,19.78
2023-05-23T12:05:15.514Z,19.89
2023-05-23T12:06:15.490Z,19.72
2023-05-23T12:07:15.540Z,19.61
2023-05-23T12:08:15.478Z,19.38
2023-05-23T12:09:15.461Z,19.23
2023-05-23T12:10:15.492Z,18.91
2023-05-23T12:11:15.449Z,19.01
2023-05-23T12:12:15.424Z,19.02
2023-05-23T12:13:15.417Z,19.02
2023-05-23T12:14:15.422Z,18.69
2023-05-23T12:15:15.401Z,18.66
2023-05-23T12:16:15.442Z,18.75
2023-05-23T12:17:15.389Z,18.54
2023-05-23T12:18:15.449Z,18.68
2023-05-23T12:19:15.384Z,19.12
2023-05-23T12:20:15.377Z,19.53
2023-05-23T12:21:15.340Z,19.71
2023-05-23T12:22:15.318Z,20.01
2023-05-23T12:23:15.337Z,20.15
2023-05-23T12:24:15.304Z,20.26
2023-05-23T12:25:15.298Z,20.31
2023-05-23T12:26:15.272Z,20.17
2023-05-23T12:27:15.281Z,20.02
2023-05-23T12:28:15.251Z,20.27
2023-05-23T12:29:15.256Z,20.31
2023-05-23T12:30:15.281Z,20.17
2023-05-23T12:31:15.256Z,20.35
2023-05-23T12:32:15.242Z,20.35
2023-05-23T12:33:15.227Z,20.27
2023-05-23T12:34:15.189Z,20.40
2023-05-23T12:35:15.200Z,20.33
2023-05-23T12:36:15.178Z,20.35
2023-05-23T12:37:19.512Z,20.17
2023-05-23T12:38:16.156Z,20.16
2023-05-23T12:39:15.150Z,20.19
2023-05-23T12:40:15.122Z,20.19
2023-05-23T12:41:15.129Z,20.16
2023-05-23T12:42:15.128Z,20.33
2023-05-23T12:43:15.100Z,20.56
2023-05-23T12:44:15.095Z,20.44
2023-05-23T12:45:15.077Z,20.33
2023-05-23T12:46:15.062Z,20.19
2023-05-23T12:47:15.135Z,20.34
2023-05-23T12:48:15.176Z,20.27
2023-05-23T12:49:15.046Z,20.31
2023-05-23T12:50:15.024Z,20.37
2023-05-23T12:51:15.015Z,20.30
2023-05-23T12:52:15.005Z,19.83